Time;durP1;ratioP1;P1;durP2;ratioP2;P2;SDS_P1;SDS_P2;PMS_P1;PMS_P2;Temp;Humidity;BMP_temperature;BMP_pressure;BME280_temperature;BME280_humidity;BME280_pressure;Samples;Min_cycle;Max_cycle;Signal;HPM_P1;HPM_P2
2022/07/12 00:00:29;;;;;;;1.45;1.17;;;;;;;16.60;49.86;100324.16;4387774;32;33658;-87
2022/07/12 00:02:58;;;;;;;2.08;0.85;;;;;;;16.56;49.76;100324.41;4402869;32;33157;-86
2022/07/12 00:05:27;;;;;;;2.25;0.70;;;;;;;16.44;50.41;100320.69;4401025;32;33480;-85
2022/07/12 00:07:56;;;;;;;1.80;0.68;;;;;;;16.44;50.41;100318.03;4397961;32;31159;-87
2022/07/12 00:10:25;;;;;;;4.20;1.25;;;;;;;16.51;50.32;100321.19;4404881;32;180380;-87
2022/07/12 00:12:54;;;;;;;2.47;0.75;;;;;;;16.39;50.41;100320.12;4385592;32;34265;-87
2022/07/12 00:15:23;;;;;;;6.62;1.87;;;;;;;16.32;50.44;100324.06;4398397;32;33759;-87
2022/07/12 00:17:52;;;;;;;2.53;0.82;;;;;;;16.25;50.02;100318.25;4397598;32;33712;-88
2022/07/12 00:20:20;;;;;;;2.37;0.62;;;;;;;16.33;49.82;100320.47;4408370;32;34267;-88
2022/07/12 00:22:49;;;;;;;2.12;0.73;;;;;;;16.46;49.40;100321.44;4385649;32;33172;-88
2022/07/12 00:25:19;;;;;;;2.10;0.90;;;;;;;16.49;49.13;100321.28;4416083;32;33805;-87
2022/07/12 00:27:48;;;;;;;1.67;0.80;;;;;;;16.42;49.43;100319.06;4411647;32;33806;-87
2022/07/12 00:30:16;;;;;;;4.55;0.73;;;;;;;16.37;49.27;100320.19;4400836;32;33072;-87
2022/07/12 00:32:44;;;;;;;6.10;1.05;;;;;;;16.42;49.09;100325.25;4401705;32;33580;-87
2022/07/12 00:35:12;;;;;;;2.53;0.70;;;;;;;16.41;49.19;100310.22;4400143;32;32509;-87
2022/07/12 00:37:41;;;;;;;2.67;0.85;;;;;;;16.37;49.79;100322.84;4394449;32;32338;-87
2022/07/12 00:40:10;;;;;;;2.00;0.80;;;;;;;16.30;50.29;100323.31;4380242;32;34205;-86
2022/07/12 00:42:39;;;;;;;6.43;1.23;;;;;;;16.15;51.08;100332.22;4415726;32;33563;-86
2022/07/12 00:45:08;;;;;;;1.52;0.60;;;;;;;16.07;51.00;100324.66;4406643;32;34213;-86
2022/07/12 00:47:44;;;;;;;2.83;0.70;;;;;;;16.15;50.82;100332.22;4403130;32;34215;-86
2022/07/12 00:50:15;;;;;;;5.45;0.70;;;;;;;16.06;51.35;100329.13;4381711;32;33297;-86
2022/07/12 00:52:47;;;;;;;5.03;1.10;;;;;;;15.99;51.66;100330.44;4391079;32;32929;-86
2022/07/12 00:55:17;;;;;;;2.22;0.85;;;;;;;16.00;51.68;100334.84;4389927;32;33598;-86
2022/07/12 00:57:47;;;;;;;3.00;0.60;;;;;;;16.00;51.64;100337.50;4376814;32;32846;-86
2022/07/12 01:00:30;;;;;;;4.53;1.12;;;;;;;16.10;51.12;100322.69;4393350;32;32302;-85
2022/07/12 01:03:01;;;;;;;0.77;0.70;;;;;;;16.09;51.12;100331.63;4389864;32;33956;-85
2022/07/12 01:05:29;;;;;;;3.90;0.88;;;;;;;16.06;51.18;100333.59;4391006;32;32442;-86
2022/07/12 01:07:58;;;;;;;3.47;0.95;;;;;;;16.14;50.91;100336.66;4381715;32;35753;-85
2022/07/12 01:10:30;;;;;;;0.90;0.68;;;;;;;15.99;50.56;100327.75;4388965;32;33326;-86
2022/07/12 01:13:00;;;;;;;2.53;0.90;;;;;;;16.06;49.97;100328.28;4387836;32;33806;-85
2022/07/12 01:15:29;;;;;;;1.83;0.90;;;;;;;16.26;49.74;100335.09;4392264;32;33023;-86
2022/07/12 01:18:00;;;;;;;5.25;0.95;;;;;;;16.20;50.22;100331.00;4388402;32;33616;-87
2022/07/12 01:20:29;;;;;;;1.67;0.82;;;;;;;16.18;50.07;100326.69;4372277;32;34787;-87
2022/07/12 01:22:58;;;;;;;2.40;0.98;;;;;;;16.12;49.96;100328.78;4387597;32;33389;-87
2022/07/12 01:25:26;;;;;;;5.00;1.10;;;;;;;16.01;50.35;100331.22;4360479;32;32665;-87
2022/07/12 01:27:55;;;;;;;2.10;1.12;;;;;;;16.18;49.80;100321.38;4362568;32;34011;-86
2022/07/12 01:30:24;;;;;;;4.45;1.15;;;;;;;16.17;49.74;100319.66;4391108;32;32751;-86
2022/07/12 01:32:55;;;;;;;6.15;1.05;;;;;;;16.13;49.87;100324.31;4388019;32;33255;-86
2022/07/12 01:35:24;;;;;;;3.03;0.88;;;;;;;16.10;50.13;100320.03;4367148;32;32193;-87
2022/07/12 01:37:52;;;;;;;3.10;1.10;;;;;;;16.09;50.25;100320.97;4377102;32;33696;-88
2022/07/12 01:40:20;;;;;;;4.28;1.23;;;;;;;15.99;50.37;100311.78;4373663;32;33702;-88
2022/07/12 01:42:51;;;;;;;9.57;1.60;;;;;;;15.98;50.36;100320.72;4404449;32;33164;-88
2022/07/12 01:45:21;;;;;;;3.53;1.10;;;;;;;15.80;51.89;100316.44;4375256;32;33887;-87
2022/07/12 01:47:52;;;;;;;6.65;1.10;;;;;;;15.86;51.49;100321.44;4392517;32;33393;-87
2022/07/12 01:50:20;;;;;;;3.62;1.87;;;;;;;15.87;50.94;100321.34;4373258;32;32636;-87
2022/07/12 01:52:49;;;;;;;2.33;1.25;;;;;;;15.62;51.60;100316.53;4398329;32;33564;-87
2022/07/12 01:55:20;;;;;;;6.95;1.40;;;;;;;15.78;51.08;100307.69;4399503;32;34038;-85
2022/07/12 01:57:48;;;;;;;7.72;1.65;;;;;;;15.60;51.33;100315.75;4397127;32;32896;-86
2022/07/12 02:00:19;;;;;;;6.10;1.70;;;;;;;15.69;51.07;100319.72;4400474;32;34311;-87
2022/07/12 02:02:48;;;;;;;6.70;1.67;;;;;;;15.66;51.03;100319.03;4411499;32;33933;-86
2022/07/12 02:05:17;;;;;;;5.00;1.30;;;;;;;15.62;51.01;100316.53;4382256;32;33990;-88
2022/07/12 02:07:46;;;;;;;4.43;1.85;;;;;;;15.69;50.74;100309.09;4393927;32;33660;-87
2022/07/12 02:10:14;;;;;;;4.40;1.50;;;;;;;15.74;50.63;100317.66;4400873;32;33662;-87
2022/07/12 02:12:44;;;;;;;4.97;1.58;;;;;;;15.70;50.69;100315.25;4399012;32;32116;-87
2022/07/12 02:15:17;;;;;;;4.25;1.87;;;;;;;15.72;50.70;100316.06;4399200;32;33486;-87
2022/07/12 02:17:47;;;;;;;7.53;2.35;;;;;;;15.64;51.02;100321.78;4389749;32;33546;-86
2022/07/12 02:20:15;;;;;;;7.25;1.80;;;;;;;15.61;51.12;100319.25;4402386;32;33343;-86
2022/07/12 02:22:43;;;;;;;8.60;1.80;;;;;;;15.66;51.09;100324.38;4400047;32;34563;-86
2022/07/12 02:25:12;;;;;;;8.50;1.73;;;;;;;15.67;51.04;100321.63;4399507;32;32695;-87
2022/07/12 02:27:40;;;;;;;7.15;1.40;;;;;;;15.74;50.87;100325.66;4402307;32;33623;-86
2022/07/12 02:30:11;;;;;;;6.32;1.75;;;;;;;15.58;51.14;100322.97;4400671;32;33719;-86
2022/07/12 02:32:39;;;;;;;8.18;1.70;;;;;;;15.35;51.70;100326.91;4389997;32;32940;-86
2022/07/12 02:35:07;;;;;;;6.22;1.67;;;;;;;15.60;51.11;100326.41;4398995;32;34456;-85
2022/07/12 02:37:36;;;;;;;7.47;1.80;;;;;;;15.58;51.22;100319.47;4404483;32;33858;-86
2022/07/12 02:42:50;;;;;;;5.15;1.33;;;;;;;15.41;52.36;100320.38;4400692;32;33193;-85
2022/07/12 02:45:19;;;;;;;9.52;1.70;;;;;;;15.31;52.72;100324.50;4400357;32;33059;-88
2022/07/12 02:47:47;;;;;;;3.78;1.30;;;;;;;15.38;52.35;100317.88;4411062;32;34093;-88
2022/07/12 02:50:15;;;;;;;6.85;1.10;;;;;;;15.35;52.45;100321.59;4403752;32;33405;-87
2022/07/12 02:52:44;;;;;;;2.65;1.02;;;;;;;15.40;52.42;100329.31;4405321;32;35294;-87
2022/07/12 02:55:12;;;;;;;6.20;1.75;;;;;;;15.52;52.06;100328.63;4402820;32;33917;-87
2022/07/12 02:57:40;;;;;;;5.12;1.87;;;;;;;15.50;52.27;100333.19;4394447;32;33563;-87
2022/07/12 03:00:09;;;;;;;3.83;1.30;;;;;;;15.16;53.66;100328.84;4401409;32;33459;-88
2022/07/12 03:02:37;;;;;;;2.90;1.55;;;;;;;15.33;53.01;100338.56;4404576;32;32750;-87
2022/07/12 03:05:05;;;;;;;5.95;1.55;;;;;;;15.28;52.79;100333.50;4382591;32;33807;-88
2022/07/12 03:07:34;;;;;;;2.45;1.42;;;;;;;15.40;52.72;100339.97;4401398;32;33759;-88
2022/07/12 03:10:03;;;;;;;3.17;1.35;;;;;;;15.21;53.52;100337.44;4395041;32;32396;-87
2022/07/12 03:12:30;;;;;;;4.10;1.02;;;;;;;15.23;53.33;100340.00;4412350;32;33933;-87
2022/07/12 03:14:59;;;;;;;3.30;0.80;;;;;;;15.02;54.44;100334.06;4402798;32;32696;-87
2022/07/12 03:17:30;;;;;;;2.97;1.00;;;;;;;15.10;53.93;100338.03;4423258;32;34268;-86
2022/07/12 03:19:59;;;;;;;2.10;1.17;;;;;;;15.17;53.55;100340.34;4401226;32;32486;-86
2022/07/12 03:22:26;;;;;;;3.80;1.25;;;;;;;15.19;53.64;100341.13;4419691;32;33938;-86
2022/07/12 03:24:55;;;;;;;3.33;1.10;;;;;;;15.09;54.52;100346.94;4402843;32;33575;-87
2022/07/12 03:27:25;;;;;;;9.13;1.37;;;;;;;14.94;55.15;100342.44;4407770;32;33841;-87
2022/07/12 03:29:53;;;;;;;3.55;1.27;;;;;;;15.03;54.97;100341.94;4403891;32;33476;-86
2022/07/12 03:32:27;;;;;;;5.60;1.23;;;;;;;15.19;54.50;100342.00;4404619;32;33505;-86
2022/07/12 03:34:55;;;;;;;3.35;1.33;;;;;;;15.37;53.85;100340.97;4406883;32;33533;-85
2022/07/12 03:37:24;;;;;;;7.72;1.62;;;;;;;15.18;54.76;100350.03;4402271;32;33985;-87
2022/07/12 03:39:53;;;;;;;5.87;1.45;;;;;;;15.20;54.96;100353.50;4389379;32;33291;-87
2022/07/12 03:42:25;;;;;;;6.35;1.60;;;;;;;15.21;55.00;100349.88;4401899;32;33184;-87
2022/07/12 03:44:53;;;;;;;4.03;1.52;;;;;;;15.20;55.40;100353.50;4397109;32;34195;-87
2022/07/12 03:47:21;;;;;;;4.85;1.45;;;;;;;15.27;55.73;100347.75;4401529;32;34084;-87
2022/07/12 03:49:49;;;;;;;6.85;2.03;;;;;;;15.44;55.14;100357.47;4412508;32;33805;-88
2022/07/12 03:52:17;;;;;;;8.20;2.05;;;;;;;15.46;55.20;100349.41;4400162;32;32812;-88
2022/07/12 03:54:45;;;;;;;4.07;1.37;;;;;;;15.58;55.47;100357.56;4387350;32;33126;-89
2022/07/12 03:57:15;;;;;;;6.82;1.60;;;;;;;15.55;55.82;100354.22;4393446;32;32787;-89
2022/07/12 03:59:45;;;;;;;4.55;1.62;;;;;;;15.71;55.68;100354.25;4401286;32;33399;-88
2022/07/12 04:02:14;;;;;;;3.80;1.73;;;;;;;15.98;54.87;100355.34;4397007;32;33487;-88
2022/07/12 04:04:44;;;;;;;5.30;1.60;;;;;;;16.42;53.16;100349.22;4371936;32;32879;-87
2022/07/12 04:07:13;;;;;;;5.05;1.90;;;;;;;16.55;52.60;100354.69;4392845;32;33733;-87
2022/07/12 04:09:41;;;;;;;6.55;1.50;;;;;;;16.37;54.13;100351.31;4401676;32;32196;-87
2022/07/12 04:12:09;;;;;;;3.15;1.00;;;;;;;16.28;53.41;100350.03;4405411;32;33977;-87
2022/07/12 04:14:38;;;;;;;3.85;1.25;;;;;;;16.45;52.95;100356.19;4400994;32;33624;-87
2022/07/12 04:17:07;;;;;;;7.95;1.02;;;;;;;17.15;51.30;100349.28;4391194;32;32309;-87
2022/07/12 04:19:37;;;;;;;6.00;1.30;;;;;;;17.03;52.83;100353.56;4392941;32;34199;-87
2022/07/12 04:22:06;;;;;;;4.40;0.80;;;;;;;17.52;51.74;100352.28;4404944;32;32637;-87
2022/07/12 04:24:35;;;;;;;4.37;0.85;;;;;;;17.84;49.30;100351.12;4403818;32;33300;-88
2022/07/12 04:27:04;;;;;;;2.95;0.70;;;;;;;17.93;49.54;100360.34;4405340;32;33543;-88
2022/07/12 04:29:34;;;;;;;1.15;0.43;;;;;;;18.25;48.47;100354.72;4394355;32;33914;-88
2022/07/12 04:32:08;;;;;;;3.60;0.90;;;;;;;18.52;47.71;100358.22;4393251;32;33805;-88
2022/07/12 04:34:40;;;;;;;1.37;0.65;;;;;;;18.45;46.41;100354.22;4394883;32;34211;-87
2022/07/12 04:37:13;;;;;;;2.20;0.60;;;;;;;18.52;46.41;100355.53;4395161;32;34008;-87
2022/07/12 04:39:43;;;;;;;0.50;0.50;;;;;;;18.76;46.70;100341.47;4407048;32;32363;-87
2022/07/12 04:42:11;;;;;;;0.93;0.50;;;;;;;19.04;45.86;100346.63;4392588;32;33700;-87
2022/07/12 04:44:39;;;;;;;1.83;0.55;;;;;;;19.06;45.21;100352.72;4381162;32;34182;-88
2022/07/12 04:47:07;;;;;;;0.93;0.85;;;;;;;19.24;44.82;100344.34;4413138;32;33680;-87
2022/07/12 04:49:36;;;;;;;2.45;0.40;;;;;;;19.55;44.37;100348.34;4391107;32;33137;-87
2022/07/12 04:52:05;;;;;;;1.73;0.70;;;;;;;19.74;43.56;100350.56;4401333;32;34267;-88
2022/07/12 04:54:37;;;;;;;1.27;0.68;;;;;;;19.72;44.14;100349.84;4401063;32;32881;-86
2022/07/12 04:57:04;;;;;;;1.30;0.37;;;;;;;19.75;44.16;100346.94;4409297;32;34393;-88
2022/07/12 04:59:33;;;;;;;2.67;0.40;;;;;;;19.77;43.86;100353.91;4399624;32;32593;-87
2022/07/12 05:02:02;;;;;;;0.60;0.40;;;;;;;19.82;43.56;100346.38;4408063;32;34789;-87
2022/07/12 05:04:33;;;;;;;1.62;0.60;;;;;;;19.83;43.41;100347.22;4402991;32;34729;-87
2022/07/12 05:07:04;;;;;;;3.87;0.70;;;;;;;19.96;42.78;100342.69;4396071;32;33274;-87
2022/07/12 05:09:33;;;;;;;1.35;0.50;;;;;;;20.26;42.42;100338.66;4411025;32;31753;-87
2022/07/12 05:12:15;;;;;;;1.10;0.40;;;;;;;20.30;42.00;100340.16;4394291;32;32508;-86
2022/07/12 05:14:47;;;;;;;2.12;0.47;;;;;;;20.24;42.52;100346.00;4418147;32;35437;-87
2022/07/12 05:17:15;;;;;;;1.75;0.70;;;;;;;20.28;42.39;100339.44;4405207;32;34125;-86
2022/07/12 05:19:43;;;;;;;3.42;1.20;;;;;;;20.48;42.94;100344.16;4406333;32;33300;-87
2022/07/12 05:22:12;;;;;;;1.87;0.52;;;;;;;20.43;41.98;100357.03;4404149;32;34407;-87
2022/07/12 05:24:40;;;;;;;1.77;0.40;;;;;;;20.19;42.48;100349.88;4404530;32;33585;-87
2022/07/12 05:27:09;;;;;;;3.15;0.40;;;;;;;20.54;41.98;100357.09;4411108;32;32768;-87
2022/07/12 05:29:38;;;;;;;2.45;0.70;;;;;;;20.65;40.79;100350.91;4392853;32;33275;-87
2022/07/12 05:32:07;;;;;;;1.45;0.50;;;;;;;20.54;41.10;100351.72;4406543;32;32970;-86
2022/07/12 05:34:38;;;;;;;1.12;0.35;;;;;;;20.92;40.20;100350.59;4399505;32;32907;-87
2022/07/12 05:37:06;;;;;;;2.35;0.40;;;;;;;20.72;40.55;100352.16;4391247;32;33153;-87
2022/07/12 05:39:34;;;;;;;1.58;0.50;;;;;;;21.00;40.78;100348.19;4416701;32;33294;-87
2022/07/12 05:42:13;;;;;;;2.85;0.47;;;;;;;21.16;41.09;100351.34;4404351;32;34641;-86
2022/07/12 05:44:42;;;;;;;1.40;0.68;;;;;;;21.23;39.89;100351.72;4400353;32;31976;-86
2022/07/12 05:47:11;;;;;;;4.37;0.82;;;;;;;21.13;40.18;100356.13;4404571;32;32971;-85
2022/07/12 05:49:39;;;;;;;3.37;0.50;;;;;;;21.35;40.28;100344.53;4403339;32;33156;-86
2022/07/12 05:55:03;;;;;;;2.67;0.77;;;;;;;21.88;40.04;100350.09;4386851;32;34389;-85
2022/07/12 05:57:30;;;;;;;2.62;0.70;;;;;;;22.07;40.09;100350.28;4386065;32;33081;-82
2022/07/12 05:59:58;;;;;;;8.38;0.70;;;;;;;22.21;39.10;100352.69;4402264;32;33423;-82
2022/07/12 06:02:27;;;;;;;6.30;0.80;;;;;;;22.16;39.58;100352.22;4401750;32;34818;-82
2022/07/12 06:04:56;;;;;;;3.90;0.68;;;;;;;22.41;40.59;100344.81;4390248;32;33200;-82
2022/07/12 06:07:24;;;;;;;1.40;0.40;;;;;;;22.99;37.63;100339.84;4397785;32;33515;-82
2022/07/12 06:09:54;;;;;;;2.97;0.73;;;;;;;23.20;38.42;100337.97;4391289;32;33916;-82
2022/07/12 06:12:24;;;;;;;4.03;0.37;;;;;;;23.24;36.42;100331.31;4399249;32;33510;-82
2022/07/12 06:14:54;;;;;;;3.92;0.43;;;;;;;23.23;35.96;100332.31;4389701;32;34379;-82
2022/07/12 06:17:32;;;;;;;1.50;0.62;;;;;;;23.22;37.11;100324.38;4391059;32;33078;-82
2022/07/12 06:20:03;;;;;;;0.73;0.30;;;;;;;23.04;37.09;100325.97;4386717;32;34011;-82
2022/07/12 06:22:33;;;;;;;2.85;0.55;;;;;;;22.79;37.00;100316.44;4374647;32;34526;-82
2022/07/12 06:25:02;;;;;;;2.20;0.52;;;;;;;22.90;36.67;100329.88;4389514;32;31839;-82
2022/07/12 06:27:51;;;;;;;1.10;0.60;;;;;;;22.86;36.67;100328.41;4369687;32;33456;-83
2022/07/12 06:30:21;;;;;;;3.08;0.40;;;;;;;23.05;37.02;100328.53;4389445;32;31989;-83
2022/07/12 06:32:52;;;;;;;1.08;0.40;;;;;;;22.94;36.91;100323.25;4377231;32;33083;-83
2022/07/12 06:35:22;;;;;;;5.03;0.85;;;;;;;23.05;37.22;100331.22;4391020;32;34271;-83
2022/07/12 06:38:02;;;;;;;2.78;0.40;;;;;;;22.81;38.69;100336.03;4403604;32;32815;-83
2022/07/12 06:40:32;;;;;;;1.55;0.77;;;;;;;22.90;38.38;100340.66;4383174;32;33272;-82
2022/07/12 06:43:01;;;;;;;1.60;0.45;;;;;;;23.02;37.19;100327.94;4388684;32;32603;-83
2022/07/12 06:45:31;;;;;;;4.40;0.57;;;;;;;22.98;36.66;100330.06;4382513;32;33346;-83
2022/07/12 06:47:59;;;;;;;1.45;0.45;;;;;;;23.28;36.22;100333.75;4376150;32;34356;-83
2022/07/12 06:50:28;;;;;;;2.45;0.70;;;;;;;23.27;35.76;100327.50;4402203;32;33290;-83
2022/07/12 06:52:57;;;;;;;2.17;0.40;;;;;;;22.79;36.09;100335.28;4397448;32;33116;-83
2022/07/12 06:55:26;;;;;;;3.12;0.43;;;;;;;22.96;36.54;100346.34;4398726;32;33366;-83
2022/07/12 06:57:54;;;;;;;4.37;0.73;;;;;;;22.99;36.46;100334.47;4385219;32;34000;-83
2022/07/12 07:00:25;;;;;;;1.95;0.52;;;;;;;22.93;37.55;100334.97;4384074;32;35679;-83
2022/07/12 07:02:57;;;;;;;1.83;0.50;;;;;;;23.08;36.70;100333.66;4399672;32;33868;-84
2022/07/12 07:05:25;;;;;;;2.40;0.60;;;;;;;23.40;36.76;100327.25;4373800;32;33921;-84
2022/07/12 07:07:59;;;;;;;1.67;0.50;;;;;;;23.23;37.22;100326.91;4373856;32;33583;-84
2022/07/12 07:10:34;;;;;;;3.30;0.40;;;;;;;23.48;36.96;100335.50;4384587;32;33705;-84
2022/07/12 07:13:02;;;;;;;1.77;0.40;;;;;;;23.91;35.65;100337.06;4414158;32;34193;-84
2022/07/12 07:15:31;;;;;;;4.65;0.60;;;;;;;23.71;35.25;100331.66;4416371;32;33461;-84
2022/07/12 07:18:00;;;;;;;0.62;0.20;;;;;;;24.09;35.40;100321.91;4381874;32;32460;-84
2022/07/12 07:20:29;;;;;;;0.75;0.45;;;;;;;24.44;34.38;100324.06;4388306;32;31880;-84
2022/07/12 07:22:56;;;;;;;4.93;0.30;;;;;;;24.44;35.36;100317.81;4402218;32;33557;-84
2022/07/12 07:25:26;;;;;;;4.78;0.40;;;;;;;24.91;33.12;100321.41;4411908;32;33031;-84
2022/07/12 07:27:56;;;;;;;0.93;0.43;;;;;;;24.88;32.57;100328.97;4392358;32;33310;-84
2022/07/12 07:33:13;;;;;;;3.92;0.40;;;;;;;24.55;33.16;100325.78;4406908;32;33049;-85
2022/07/12 07:35:43;;;;;;;1.55;0.40;;;;;;;24.67;33.57;100319.19;4399498;32;33401;-85
2022/07/12 07:38:11;;;;;;;1.37;0.45;;;;;;;25.15;32.28;100317.38;4416403;32;33439;-84
2022/07/12 07:40:39;;;;;;;1.27;0.60;;;;;;;25.12;32.37;100323.94;4408746;32;32487;-84
2022/07/12 07:43:09;;;;;;;1.55;0.50;;;;;;;25.44;32.15;100322.66;4401154;32;33565;-84
2022/07/12 07:45:37;;;;;;;2.30;0.50;;;;;;;24.82;32.94;100326.84;4400897;32;34049;-85
2022/07/12 07:48:09;;;;;;;0.37;0.35;;;;;;;25.01;32.00;100322.22;4401604;32;35043;-84
2022/07/12 07:50:54;;;;;;;3.67;0.47;;;;;;;25.10;33.28;100309.72;4400418;32;32515;-84
2022/07/12 07:53:25;;;;;;;2.03;0.40;;;;;;;25.24;31.90;100317.34;4414393;32;33194;-84
2022/07/12 07:55:55;;;;;;;1.27;0.40;;;;;;;25.66;32.29;100316.84;4405055;32;33295;-85
2022/07/12 07:58:24;;;;;;;2.97;0.50;;;;;;;25.62;31.09;100320.84;4391367;32;34143;-84
2022/07/12 08:00:59;;;;;;;3.58;0.50;;;;;;;25.74;31.46;100308.84;4398846;32;32441;-84
2022/07/12 08:03:31;;;;;;;3.42;0.30;;;;;;;25.63;31.04;100317.12;4391088;32;32466;-85
2022/07/12 08:06:00;;;;;;;1.58;0.40;;;;;;;25.93;32.36;100317.84;4381924;32;32621;-85
2022/07/12 08:08:31;;;;;;;1.75;0.68;;;;;;;25.85;32.53;100320.47;4399906;32;34329;-85
2022/07/12 08:11:20;;;;;;;5.18;1.15;;;;;;;25.56;32.39;100320.62;4406857;32;32621;-85
2022/07/12 08:13:49;;;;;;;3.47;0.60;;;;;;;25.98;31.44;100316.38;4391080;32;32917;-84
2022/07/12 08:16:20;;;;;;;3.92;0.60;;;;;;;26.43;30.74;100309.19;4404000;32;33244;-85
2022/07/12 08:21:31;;;;;;;;;;;;;;;25.83;32.98;100330.56;4402400;32;33602;-85
2022/07/12 08:23:59;;;;;;;4.25;0.65;;;;;;;26.11;30.25;100323.25;4407093;32;36029;-85
2022/07/12 08:26:27;;;;;;;1.75;0.80;;;;;;;25.81;31.32;100327.19;4395664;32;33692;-85
2022/07/12 08:28:57;;;;;;;3.67;0.65;;;;;;;25.54;31.60;100331.56;4401297;32;33526;-85
2022/07/12 08:31:26;;;;;;;4.22;0.80;;;;;;;25.58;32.56;100327.56;4403535;32;32007;-85
2022/07/12 08:33:59;;;;;;;2.22;0.68;;;;;;;25.50;32.34;100338.28;4401249;32;33089;-85
2022/07/12 08:36:31;;;;;;;2.72;0.62;;;;;;;25.31;31.94;100336.53;4401304;32;33392;-86
2022/07/12 08:39:02;;;;;;;6.70;1.15;;;;;;;24.88;32.70;100328.97;4392635;32;33573;-85
2022/07/12 08:41:31;;;;;;;4.32;0.75;;;;;;;25.18;32.42;100323.34;4414715;32;32504;-85
2022/07/12 08:44:01;;;;;;;3.28;0.90;;;;;;;25.55;33.81;100319.78;4381012;32;32806;-85
2022/07/12 08:46:33;;;;;;;3.85;0.60;;;;;;;25.96;31.96;100323.78;4397654;32;36009;-85
2022/07/12 08:49:07;;;;;;;4.68;1.17;;;;;;;26.27;30.65;100309.88;4397587;32;33511;-85
2022/07/12 08:51:37;;;;;;;3.83;0.93;;;;;;;26.40;30.32;100313.06;4401448;32;32116;-85
2022/07/12 08:54:10;;;;;;;0.80;0.52;;;;;;;26.36;31.42;100302.69;4401042;32;33876;-85
2022/07/12 08:56:42;;;;;;;1.70;0.60;;;;;;;26.75;31.71;100303.19;4412122;32;32886;-85
2022/07/12 08:59:16;;;;;;;1.52;0.70;;;;;;;26.93;30.57;100305.84;4402275;32;33525;-85
2022/07/12 09:01:51;;;;;;;2.97;0.43;;;;;;;27.42;31.45;100300.69;4413908;32;32370;-85
2022/07/12 09:04:23;;;;;;;1.42;0.50;;;;;;;26.80;29.40;100300.84;4417171;32;32636;-85
2022/07/12 09:06:53;;;;;;;;;;;;;;;27.45;27.98;100297.66;4406301;32;34015;-84
2022/07/12 09:09:28;;;;;;;;;;;;;;;27.47;27.37;100292.91;4400501;32;36051;-85
2022/07/12 09:11:57;;;;;;;1.40;0.20;;;;;;;27.12;29.97;100293.94;4393979;32;30155;-85
2022/07/12 09:14:26;;;;;;;1.58;0.40;;;;;;;26.79;30.18;100302.69;4400948;32;33445;-85
2022/07/12 09:17:12;;;;;;;1.98;0.70;;;;;;;27.36;27.74;100293.22;4417189;32;32757;-85
2022/07/12 09:19:55;;;;;;;1.67;0.30;;;;;;;27.29;27.77;100296.56;4413293;32;33009;-85
2022/07/12 09:22:26;;;;;;;1.05;0.35;;;;;;;27.15;27.56;100289.03;4403942;32;32581;-85
2022/07/12 09:24:55;;;;;;;4.18;0.50;;;;;;;27.05;28.33;100288.28;4405451;32;34186;-85
2022/07/12 09:27:25;;;;;;;8.50;0.90;;;;;;;26.95;28.25;100287.56;4404573;32;34440;-85
2022/07/12 09:29:55;;;;;;;1.13;0.50;;;;;;;26.46;29.08;100288.09;4404112;32;33427;-85
2022/07/12 09:38:09;;;;;;;5.30;0.55;;;;;;;26.61;29.20;100291.06;4413384;32;33490;-84
2022/07/12 09:40:38;;;;;;;1.58;0.88;;;;;;;27.03;28.05;100276.75;4400866;32;33713;-86
2022/07/12 09:43:08;;;;;;;0.93;0.55;;;;;;;26.59;29.09;100282.25;4402357;32;32926;-85
2022/07/12 09:45:39;;;;;;;1.98;0.52;;;;;;;26.78;27.33;100282.03;4403063;32;31545;-85
2022/07/12 09:48:12;;;;;;;1.92;0.30;;;;;;;26.95;27.57;100274.84;4403729;32;33267;-85
2022/07/12 09:50:50;;;;;;;4.78;0.30;;;;;;;26.79;28.46;100283.75;4404206;32;32479;-84
2022/07/12 09:53:29;;;;;;;0.68;0.30;;;;;;;26.57;28.67;100284.25;4401288;32;31420;-85
2022/07/12 09:56:03;;;;;;;3.87;0.43;;;;;;;26.62;28.34;100286.50;4418733;32;33165;-85
2022/07/12 09:58:36;;;;;;;3.75;0.35;;;;;;;26.83;27.75;100272.59;4402194;32;32990;-85
2022/07/12 10:01:09;;;;;;;2.40;0.70;;;;;;;26.86;27.70;100293.94;4414156;32;33975;-84
2022/07/12 10:03:54;;;;;;;1.55;0.60;;;;;;;26.47;28.73;100292.47;4404079;32;33066;-85
2022/07/12 10:06:26;;;;;;;1.95;0.47;;;;;;;26.74;28.77;100274.41;4385362;32;34182;-85
2022/07/12 10:09:04;;;;;;;1.15;0.40;;;;;;;26.90;29.07;100279.06;4394691;32;31996;-85
2022/07/12 10:11:35;;;;;;;0.55;0.40;;;;;;;26.52;27.83;100276.59;4415597;32;33256;-85
2022/07/12 10:14:24;;;;;;;2.20;0.40;;;;;;;27.33;27.11;100274.53;4412932;32;32860;-85
2022/07/12 10:17:00;;;;;;;2.20;0.50;;;;;;;27.62;29.30;100277.69;4407773;32;35196;-84
2022/07/12 10:19:32;;;;;;;0.70;0.30;;;;;;;27.90;28.02;100272.00;4417454;32;33512;-85
2022/07/12 10:27:24;;;;;;;2.92;0.62;;;;;;;28.26;26.22;100262.53;4415432;32;32748;-83
2022/07/12 10:30:15;;;;;;;1.02;0.40;;;;;;;28.45;25.51;100250.50;4412575;32;34367;-83
2022/07/12 10:32:45;;;;;;;1.23;0.30;;;;;;;28.69;24.56;100256.94;4393199;32;33284;-84
2022/07/12 10:38:12;;;;;;;1.10;0.30;;;;;;;28.74;23.79;100249.09;4416610;32;34775;-84
2022/07/12 10:40:45;;;;;;;2.03;0.50;;;;;;;28.71;23.41;100244.00;4411213;32;32817;-84
2022/07/12 10:46:20;;;;;;;2.75;0.60;;;;;;;28.28;25.38;100244.19;4416526;32;32156;-83
2022/07/12 10:48:50;;;;;;;2.33;0.57;;;;;;;28.02;24.99;100254.41;4402390;32;33468;-84
2022/07/12 10:51:21;;;;;;;2.67;0.45;;;;;;;27.94;24.80;100248.97;4397919;32;33611;-84
2022/07/12 10:53:50;;;;;;;0.40;0.40;;;;;;;27.76;25.50;100277.06;4399897;32;34186;-84
2022/07/12 10:56:25;;;;;;;5.03;0.88;;;;;;;26.84;28.95;100313.06;4402164;32;33234;-84
2022/07/12 10:58:58;;;;;;;7.87;1.70;;;;;;;25.49;38.91;100371.72;4398308;32;33581;-84
2022/07/12 11:01:30;;;;;;;3.97;0.52;;;;;;;24.45;43.36;100336.56;4388083;32;33083;-83
2022/07/12 11:04:08;;;;;;;2.22;0.52;;;;;;;23.86;35.29;100333.94;4396701;32;34450;-84
2022/07/12 11:06:42;;;;;;;1.05;0.32;;;;;;;23.21;43.23;100328.03;4389778;32;32321;-84
2022/07/12 11:09:12;;;;;;;1.12;0.50;;;;;;;22.93;45.74;100324.19;4398003;32;32903;-83
2022/07/12 11:11:50;;;;;;;1.65;0.73;;;;;;;22.49;52.34;100321.63;4402975;32;34125;-84
2022/07/12 11:14:25;;;;;;;5.55;1.20;;;;;;;22.52;54.88;100322.37;4392718;32;32962;-84
2022/07/12 11:16:56;;;;;;;2.25;0.70;;;;;;;22.81;53.87;100306.41;4404201;32;32624;-82
2022/07/12 11:19:30;;;;;;;5.82;0.68;;;;;;;23.55;53.10;100301.66;4413316;32;34709;-82
2022/07/12 11:21:58;;;;;;;1.12;0.35;;;;;;;23.84;46.78;100298.19;4396379;32;32359;-84
2022/07/12 11:24:30;;;;;;;3.95;0.57;;;;;;;24.50;48.73;100285.69;4387666;32;33157;-84
2022/07/12 11:27:00;;;;;;;3.40;0.62;;;;;;;24.88;49.84;100283.91;4395405;32;33806;-83
2022/07/12 11:29:30;;;;;;;2.08;0.98;;;;;;;25.11;45.52;100272.75;4402409;32;34707;-85
2022/07/12 11:32:06;;;;;;;1.77;0.47;;;;;;;25.66;47.23;100273.56;4415220;32;33659;-84
2022/07/12 11:34:41;;;;;;;2.50;0.60;;;;;;;25.68;43.75;100259.88;4401367;32;34149;-84
2022/07/12 11:37:09;;;;;;;4.45;0.57;;;;;;;26.17;37.42;100258.53;4393265;32;32303;-84
2022/07/12 11:39:41;;;;;;;3.50;0.40;;;;;;;26.22;38.63;100264.34;4418512;32;34547;-84
2022/07/12 11:42:10;;;;;;;1.45;0.65;;;;;;;26.19;39.48;100271.91;4405110;32;33314;-84
2022/07/12 11:44:44;;;;;;;2.78;0.50;;;;;;;26.19;35.11;100264.63;4406499;32;33965;-83
2022/07/12 11:47:21;;;;;;;0.88;0.32;;;;;;;26.44;34.48;100251.31;4406045;32;34186;-84
2022/07/12 11:49:53;;;;;;;1.85;0.40;;;;;;;26.45;33.85;100242.22;4404110;32;33787;-83
2022/07/12 11:52:24;;;;;;;4.12;0.45;;;;;;;26.61;33.24;100236.03;4396148;32;34041;-84
2022/07/12 11:55:07;;;;;;;1.08;0.37;;;;;;;26.84;32.87;100230.94;4379036;32;33179;-83
2022/07/12 11:57:36;;;;;;;0.70;0.30;;;;;;;27.22;33.78;100218.75;4392522;32;32314;-83
2022/07/12 12:00:23;;;;;;;6.65;0.73;;;;;;;27.61;31.19;100229.88;4400883;32;33267;-84
2022/07/12 12:02:52;;;;;;;0.37;0.20;;;;;;;27.88;28.19;100223.34;4378764;32;31785;-84
2022/07/12 12:05:23;;;;;;;3.25;0.30;;;;;;;28.10;26.94;100224.50;4383044;32;33934;-84
2022/07/12 12:07:52;;;;;;;2.60;0.50;;;;;;;28.27;26.94;100218.06;4384567;32;33100;-83
2022/07/12 12:13:13;;;;;;;7.15;0.50;;;;;;;27.89;27.62;100219.59;4385343;32;32781;-84